Time;durP1;ratioP1;P1;durP2;ratioP2;P2;SDS_P1;SDS_P2;PMS_P1;PMS_P2;Temp;Humidity;BMP_temperature;BMP_pressure;BME280_temperature;BME280_humidity;BME280_pressure;Samples;Min_cycle;Max_cycle;Signal;HPM_P1;HPM_P2
2022/07/07 00:00:19;;;;;;;7.65;5.75;;;;;;;23.41;46.75;101916.19;5051177;28;20045;-65
2022/07/07 00:02:50;;;;;;;9.60;6.28;;;;;;;23.39;46.86;101910.00;5051550;28;20055;-65
2022/07/07 00:05:17;;;;;;;9.20;6.05;;;;;;;23.41;46.99;101905.22;5051475;28;20048;-65
2022/07/07 00:07:44;;;;;;;8.55;6.07;;;;;;;23.39;46.99;101909.16;5051487;28;20510;-65
2022/07/07 00:10:10;;;;;;;8.43;5.93;;;;;;;23.39;47.20;101900.91;5051333;28;20055;-65
2022/07/07 00:12:38;;;;;;;7.95;6.00;;;;;;;23.34;47.32;101898.69;5050365;28;20128;-65
2022/07/07 00:15:06;;;;;;;8.00;5.95;;;;;;;23.33;47.63;101896.97;5051163;28;20124;-65
2022/07/07 00:17:32;;;;;;;6.47;5.60;;;;;;;23.32;47.53;101894.38;5051053;28;20132;-65
2022/07/07 00:19:59;;;;;;;8.95;6.15;;;;;;;23.31;47.70;101885.31;5051383;28;20056;-65
2022/07/07 00:22:35;;;;;;;7.63;6.25;;;;;;;23.29;47.67;101883.75;5051359;28;20040;-65
2022/07/07 00:25:02;;;;;;;8.35;6.57;;;;;;;23.28;47.67;101879.31;5051492;28;20045;-64
2022/07/07 00:27:28;;;;;;;9.80;7.10;;;;;;;23.27;48.02;101875.69;5051368;28;20041;-65
2022/07/07 00:29:55;;;;;;;11.88;7.10;;;;;;;23.27;47.69;101869.38;5051208;28;20037;-65
2022/07/07 00:32:21;;;;;;;9.20;7.22;;;;;;;23.27;47.99;101858.41;5050847;28;20033;-65
2022/07/07 00:34:55;;;;;;;9.73;6.53;;;;;;;23.26;48.13;101857.53;5053649;28;20152;-64
2022/07/07 00:37:21;;;;;;;10.50;6.97;;;;;;;23.27;47.99;101856.50;5055871;28;20052;-65
2022/07/07 00:39:48;;;;;;;9.88;6.70;;;;;;;23.28;48.00;101860.13;5055293;28;20041;-65
2022/07/07 00:42:15;;;;;;;9.15;7.00;;;;;;;23.30;48.27;101861.66;5053767;28;20040;-65
2022/07/07 00:44:43;;;;;;;8.38;7.10;;;;;;;23.31;48.28;101851.56;5054709;28;20045;-65
2022/07/07 00:47:11;;;;;;;7.53;6.47;;;;;;;23.33;48.40;101852.25;5053918;28;20045;-65
2022/07/07 00:49:40;;;;;;;13.30;7.30;;;;;;;23.33;48.09;101844.88;5054857;28;20071;-64
2022/07/07 00:52:08;;;;;;;9.55;7.82;;;;;;;23.32;48.21;101836.81;5055577;28;20044;-65
2022/07/07 00:54:37;;;;;;;10.45;7.45;;;;;;;23.31;48.32;101827.75;5054865;28;20035;-66
2022/07/07 00:57:05;;;;;;;12.00;7.53;;;;;;;23.28;48.35;101828.09;5054802;28;20053;-65
2022/07/07 00:59:56;;;;;;;9.07;7.28;;;;;;;23.27;48.38;101834.59;5054665;28;20045;-65
2022/07/07 01:02:34;;;;;;;9.80;7.43;;;;;;;23.26;48.44;101830.13;5054612;28;20037;-65
2022/07/07 01:05:05;;;;;;;14.13;7.38;;;;;;;23.26;48.42;101834.75;5054873;28;20052;-65
2022/07/07 01:07:32;;;;;;;8.98;6.95;;;;;;;23.24;48.68;101834.06;5054802;28;20048;-64
2022/07/07 01:10:00;;;;;;;8.80;6.72;;;;;;;23.21;48.63;101837.16;5054801;28;20048;-65
2022/07/07 01:12:36;;;;;;;8.45;7.05;;;;;;;23.17;48.54;101836.63;5054577;28;20120;-65
2022/07/07 01:15:04;;;;;;;12.10;7.57;;;;;;;23.14;48.57;101835.06;5054389;28;20057;-65
2022/07/07 01:17:30;;;;;;;8.82;6.78;;;;;;;23.12;48.78;101839.00;5054629;28;20045;-64
2022/07/07 01:19:58;;;;;;;9.20;6.82;;;;;;;23.08;48.88;101835.75;5054882;28;20045;-64
2022/07/07 01:22:33;;;;;;;8.75;6.85;;;;;;;23.06;49.22;101828.72;5054503;28;20041;-65
2022/07/07 01:25:00;;;;;;;10.63;6.82;;;;;;;23.05;49.10;101816.03;5054850;28;20041;-65
2022/07/07 01:27:26;;;;;;;9.15;6.28;;;;;;;23.04;49.42;101817.06;5054686;28;20079;-65
2022/07/07 01:29:56;;;;;;;9.18;6.90;;;;;;;23.02;49.14;101817.19;5052942;28;20474;-65
2022/07/07 01:32:27;;;;;;;9.15;6.75;;;;;;;23.01;49.47;101817.38;5054467;28;20423;-65
2022/07/07 01:34:54;;;;;;;7.97;6.53;;;;;;;23.01;49.51;101810.00;5054115;28;20049;-64
2022/07/07 01:37:24;;;;;;;9.02;6.50;;;;;;;23.00;49.33;101807.44;5054550;28;20044;-64
2022/07/07 01:39:52;;;;;;;9.15;6.57;;;;;;;22.99;49.73;101805.72;5054402;28;20148;-64
2022/07/07 01:42:18;;;;;;;11.65;6.95;;;;;;;22.97;49.65;101810.50;5054403;28;20041;-64
2022/07/07 01:44:45;;;;;;;10.07;6.50;;;;;;;22.96;49.90;101806.03;5054561;28;20049;-64
2022/07/07 01:47:13;;;;;;;7.32;6.20;;;;;;;22.95;49.90;101798.84;5054370;28;20048;-64
2022/07/07 01:49:39;;;;;;;7.15;5.97;;;;;;;22.92;49.60;101801.94;5054135;28;20072;-64
2022/07/07 01:52:06;;;;;;;7.63;6.25;;;;;;;22.89;50.03;101799.53;5053232;28;20053;-64
2022/07/07 01:54:38;;;;;;;8.52;6.50;;;;;;;22.88;50.07;101803.28;5054168;28;20037;-64
2022/07/07 01:57:06;;;;;;;8.27;6.00;;;;;;;22.84;50.30;101789.06;5034285;28;20041;-64
2022/07/07 01:59:34;;;;;;;8.70;6.00;;;;;;;22.83;50.37;101790.94;5051670;28;20049;-64
2022/07/07 02:02:01;;;;;;;9.43;6.40;;;;;;;22.81;50.07;101798.47;5054053;28;20040;-64
2022/07/07 02:04:31;;;;;;;9.57;5.72;;;;;;;22.79;50.23;101792.25;5054249;28;20049;-64
2022/07/07 02:06:58;;;;;;;11.00;6.80;;;;;;;22.80;50.61;101796.75;5034796;28;20044;-64
2022/07/07 02:09:25;;;;;;;7.95;5.72;;;;;;;22.77;50.70;101797.06;5041439;28;20037;-64
2022/07/07 02:11:51;;;;;;;8.60;6.18;;;;;;;22.77;50.87;101801.66;5054162;28;20310;-65
2022/07/07 02:14:23;;;;;;;10.18;6.43;;;;;;;22.78;50.71;101801.50;5054457;28;20041;-64
2022/07/07 02:16:50;;;;;;;8.52;6.20;;;;;;;22.80;50.63;101801.38;5054229;28;20045;-64
2022/07/07 02:19:16;;;;;;;8.90;6.20;;;;;;;22.80;50.93;101790.41;5053896;28;20057;-64
2022/07/07 02:21:43;;;;;;;9.30;6.68;;;;;;;22.79;50.83;101795.00;5053862;28;20503;-64
2022/07/07 02:24:10;;;;;;;8.00;5.95;;;;;;;22.80;50.76;101799.50;5054252;28;20037;-65
2022/07/07 02:26:37;;;;;;;13.88;6.18;;;;;;;22.81;50.81;101798.47;5052660;28;20041;-64
2022/07/07 02:29:04;;;;;;;9.70;5.28;;;;;;;22.82;50.93;101799.31;5053838;28;20048;-64
2022/07/07 02:31:31;;;;;;;10.07;5.80;;;;;;;22.83;51.02;101796.41;5053436;28;20056;-64
2022/07/07 02:34:02;;;;;;;7.18;5.47;;;;;;;22.82;51.17;101791.97;5053586;28;20040;-64
2022/07/07 02:36:28;;;;;;;7.85;5.72;;;;;;;22.83;51.12;101785.47;5053839;28;20049;-64
2022/07/07 02:38:55;;;;;;;8.68;6.68;;;;;;;22.82;51.06;101775.53;5053769;28;20128;-64
2022/07/07 02:41:22;;;;;;;8.65;5.45;;;;;;;22.80;51.29;101783.06;5053358;28;20395;-64
2022/07/07 02:43:49;;;;;;;8.65;5.80;;;;;;;22.81;51.47;101781.19;5051591;28;20398;-65
2022/07/07 02:46:16;;;;;;;6.47;5.75;;;;;;;22.82;51.18;101793.84;5052493;28;20471;-64
2022/07/07 02:48:42;;;;;;;7.85;5.60;;;;;;;22.83;51.30;101785.47;5052016;28;20095;-64
2022/07/07 02:51:09;;;;;;;6.55;5.00;;;;;;;22.83;51.42;101793.69;5052274;28;20537;-64
2022/07/07 02:53:40;;;;;;;7.43;5.07;;;;;;;22.83;51.54;101777.25;5052093;28;20086;-64
2022/07/07 02:56:07;;;;;;;7.80;5.43;;;;;;;22.85;51.86;101778.97;5051871;28;20509;-64
2022/07/07 02:58:34;;;;;;;9.57;5.43;;;;;;;22.86;51.74;101775.19;5051682;28;20025;-64
2022/07/07 03:01:00;;;;;;;7.20;5.38;;;;;;;22.86;51.78;101783.41;5051822;28;20052;-64
2022/07/07 03:03:30;;;;;;;7.68;5.30;;;;;;;22.86;51.70;101799.84;5051970;28;20476;-64
2022/07/07 03:05:57;;;;;;;7.82;5.60;;;;;;;22.81;52.19;101808.56;5051730;28;20047;-64
2022/07/07 03:08:24;;;;;;;5.65;3.65;;;;;;;22.71;51.96;101803.19;5051826;28;20064;-65
2022/07/07 03:10:58;;;;;;;3.72;2.67;;;;;;;22.64;52.23;101798.53;5052704;28;20044;-65
2022/07/07 03:13:28;;;;;;;3.05;2.47;;;;;;;22.57;52.21;101801.06;5050534;28;20064;-65
2022/07/07 03:15:55;;;;;;;3.80;1.95;;;;;;;22.54;52.41;101795.06;5051657;28;20043;-65
2022/07/07 03:18:22;;;;;;;3.03;1.90;;;;;;;22.52;52.24;101796.09;5051367;28;20064;-65
2022/07/07 03:20:49;;;;;;;2.83;1.80;;;;;;;22.51;52.26;101802.59;5050456;28;20515;-64
2022/07/07 03:23:17;;;;;;;2.92;1.58;;;;;;;22.49;52.31;101798.28;5051638;28;20075;-64
2022/07/07 03:25:43;;;;;;;2.90;1.75;;;;;;;22.46;52.47;101796.75;5051941;28;20045;-64
2022/07/07 03:28:10;;;;;;;3.60;1.80;;;;;;;22.42;52.36;101789.03;5051720;28;20076;-64
2022/07/07 03:30:37;;;;;;;9.18;2.10;;;;;;;22.38;52.24;101793.97;5051524;28;20136;-64
2022/07/07 03:33:05;;;;;;;3.15;1.52;;;;;;;22.33;52.03;101795.47;5051513;28;20087;-65
2022/07/07 03:35:32;;;;;;;5.65;1.67;;;;;;;22.28;52.17;101806.03;5051248;28;20495;-65
2022/07/07 03:37:58;;;;;;;6.10;1.70;;;;;;;22.22;52.18;101793.00;5051276;28;20466;-65
2022/07/07 03:40:25;;;;;;;4.20;1.85;;;;;;;22.15;52.11;101792.78;5051789;28;20041;-65
2022/07/07 03:42:53;;;;;;;5.32;1.83;;;;;;;22.09;52.71;101796.16;5051520;28;20095;-65
2022/07/07 03:45:20;;;;;;;4.72;1.83;;;;;;;22.05;52.53;101795.63;5051257;28;20136;-64
2022/07/07 03:47:46;;;;;;;4.13;2.20;;;;;;;22.01;52.69;101793.34;5051222;28;20557;-64
2022/07/07 03:50:13;;;;;;;2.38;1.92;;;;;;;21.95;53.09;101797.56;5051255;28;20124;-65
2022/07/07 03:52:42;;;;;;;4.15;2.10;;;;;;;21.89;53.26;101785.41;5051780;28;20491;-64
2022/07/07 03:55:09;;;;;;;5.25;2.20;;;;;;;21.87;53.33;101790.16;5051059;28;20568;-64
2022/07/07 03:57:38;;;;;;;2.85;2.38;;;;;;;21.86;53.51;101799.38;5051336;28;20087;-64
2022/07/07 04:00:06;;;;;;;3.75;2.33;;;;;;;21.84;53.59;101795.94;5050970;28;20040;-64
2022/07/07 04:02:35;;;;;;;4.63;2.50;;;;;;;21.84;53.55;101793.22;5050768;28;20133;-65
2022/07/07 04:05:02;;;;;;;4.70;2.70;;;;;;;21.85;54.00;101799.53;5051274;28;20137;-64
2022/07/07 04:07:29;;;;;;;6.63;2.53;;;;;;;21.85;54.02;101789.47;5051424;28;20079;-65
2022/07/07 04:09:55;;;;;;;3.08;2.38;;;;;;;21.86;54.18;101779.38;5054194;28;20037;-64
2022/07/07 04:12:32;;;;;;;3.38;2.30;;;;;;;21.84;54.32;101779.53;5055007;28;20545;-66
2022/07/07 04:14:59;;;;;;;3.75;2.72;;;;;;;21.85;54.16;101774.94;5054750;28;20053;-64
2022/07/07 04:17:26;;;;;;;3.33;2.42;;;;;;;21.85;54.05;101780.41;5055056;28;20037;-64
2022/07/07 04:19:52;;;;;;;3.63;2.45;;;;;;;21.84;54.16;101782.28;5055441;28;20260;-64
2022/07/07 04:22:19;;;;;;;4.88;2.80;;;;;;;21.83;54.67;101780.56;5055268;28;20545;-65
2022/07/07 04:24:47;;;;;;;3.83;2.85;;;;;;;21.84;54.59;101775.94;5054760;28;20482;-64
2022/07/07 04:27:14;;;;;;;5.10;2.70;;;;;;;21.82;54.69;101772.53;5055023;28;20510;-65
2022/07/07 04:29:41;;;;;;;4.57;2.45;;;;;;;21.81;54.84;101784.47;5054746;28;20087;-64
2022/07/07 04:32:08;;;;;;;6.28;3.05;;;;;;;21.78;54.99;101782.91;5054679;28;20069;-64
2022/07/07 04:34:39;;;;;;;5.20;2.70;;;;;;;21.75;54.79;101777.78;5055116;28;20136;-64
2022/07/07 04:37:05;;;;;;;6.95;2.58;;;;;;;21.74;54.99;101784.25;5054881;28;20469;-64
2022/07/07 04:39:32;;;;;;;3.40;2.83;;;;;;;21.76;55.39;101793.16;5054455;28;20108;-65
2022/07/07 04:41:59;;;;;;;4.78;2.88;;;;;;;21.77;55.04;101794.00;5054622;28;20065;-65
2022/07/07 04:44:27;;;;;;;8.15;3.28;;;;;;;21.76;55.51;101792.28;5054489;28;20075;-64
2022/07/07 04:46:54;;;;;;;4.57;3.20;;;;;;;21.77;55.59;101788.56;5054601;28;20065;-64
2022/07/07 04:49:21;;;;;;;4.13;3.45;;;;;;;21.78;55.54;101788.38;5054655;28;20052;-64
2022/07/07 04:51:48;;;;;;;5.03;3.10;;;;;;;21.80;55.55;101790.97;5054643;28;20128;-64
2022/07/07 04:54:15;;;;;;;4.13;3.00;;;;;;;21.80;55.93;101802.75;5054644;28;20053;-64
2022/07/07 04:56:42;;;;;;;3.33;2.90;;;;;;;21.79;55.85;101797.44;5054461;28;20051;-65
2022/07/07 04:59:08;;;;;;;4.05;2.60;;;;;;;21.73;56.20;101795.34;5054300;28;20438;-65
2022/07/07 05:01:35;;;;;;;6.45;2.80;;;;;;;21.69;55.94;101799.41;5054754;28;20045;-65
2022/07/07 05:04:02;;;;;;;3.78;2.88;;;;;;;21.66;56.64;101807.94;5054561;28;20068;-64
2022/07/07 05:06:28;;;;;;;4.47;2.95;;;;;;;21.64;56.61;101816.28;5054687;28;20040;-65
2022/07/07 05:08:55;;;;;;;5.22;3.10;;;;;;;21.62;56.92;101810.13;5054589;28;20033;-64
2022/07/07 05:11:21;;;;;;;3.88;2.60;;;;;;;21.59;56.64;101815.91;5053433;28;20047;-64
2022/07/07 05:13:48;;;;;;;5.18;2.80;;;;;;;21.58;56.91;101824.28;5054459;28;20061;-64
2022/07/07 05:16:15;;;;;;;3.92;2.50;;;;;;;21.56;56.90;101821.69;5053080;28;20056;-64
2022/07/07 05:18:42;;;;;;;4.55;2.38;;;;;;;21.51;56.78;101829.47;5054690;28;20037;-64
2022/07/07 05:21:09;;;;;;;2.58;1.58;;;;;;;21.46;57.24;101834.53;5054366;28;20048;-63
2022/07/07 05:23:39;;;;;;;5.78;2.40;;;;;;;21.41;57.33;101835.00;5054468;28;20044;-63
2022/07/07 05:26:06;;;;;;;4.72;2.10;;;;;;;21.37;57.20;101830.88;5054934;28;20045;-65
2022/07/07 05:28:33;;;;;;;5.20;1.90;;;;;;;21.36;57.20;101836.50;5054273;28;20040;-64
2022/07/07 05:30:59;;;;;;;3.95;1.83;;;;;;;21.37;57.15;101836.34;5053533;28;20041;-64
2022/07/07 05:33:30;;;;;;;5.13;1.77;;;;;;;21.38;57.64;101839.94;5053420;28;20041;-63
2022/07/07 05:35:57;;;;;;;3.67;1.85;;;;;;;21.40;57.37;101840.63;5053615;28;20050;-64
2022/07/07 05:38:28;;;;;;;2.08;1.50;;;;;;;21.42;57.35;101836.72;5044652;28;20037;-65
2022/07/07 05:40:55;;;;;;;4.55;1.73;;;;;;;21.47;57.68;101845.31;5053629;28;20041;-64
2022/07/07 05:43:21;;;;;;;4.22;1.75;;;;;;;21.49;57.47;101845.16;5053741;28;20053;-64
2022/07/07 05:45:48;;;;;;;6.80;1.55;;;;;;;21.53;57.78;101855.63;5053477;28;20045;-64
2022/07/07 05:48:15;;;;;;;5.28;1.70;;;;;;;21.56;57.95;101863.56;5053653;28;20242;-64
2022/07/07 05:50:41;;;;;;;6.75;1.40;;;;;;;21.59;57.87;101864.25;5052974;28;20048;-64
2022/07/07 05:53:09;;;;;;;4.65;1.77;;;;;;;21.61;57.58;101863.09;5053065;28;20059;-63
2022/07/07 05:55:40;;;;;;;3.55;1.88;;;;;;;21.61;57.75;101862.22;5051860;28;20427;-64
2022/07/07 05:58:07;;;;;;;4.18;1.73;;;;;;;21.61;57.43;101873.16;5053802;28;20037;-64
2022/07/07 06:00:34;;;;;;;3.20;2.08;;;;;;;21.60;57.78;101880.50;5053214;28;20121;-65
2022/07/07 06:03:05;;;;;;;9.02;3.17;;;;;;;21.56;57.95;101890.03;5059294;28;20036;-65
2022/07/07 06:05:32;;;;;;;3.33;1.52;;;;;;;21.52;57.67;101894.06;5052629;28;20548;-65
2022/07/07 06:07:59;;;;;;;2.58;1.55;;;;;;;21.45;57.58;101899.28;5052177;28;20390;-65
2022/07/07 06:10:25;;;;;;;2.53;1.00;;;;;;;21.40;57.58;101893.41;5052609;28;20045;-64
2022/07/07 06:12:57;;;;;;;2.72;0.80;;;;;;;21.32;57.93;101904.25;5052405;28;20049;-65
2022/07/07 06:15:23;;;;;;;4.03;0.93;;;;;;;21.26;57.51;101910.34;5052186;28;20139;-64
2022/07/07 06:17:50;;;;;;;3.92;1.27;;;;;;;21.22;57.55;101911.63;5052674;28;20037;-64
2022/07/07 06:20:35;;;;;;;3.50;1.30;;;;;;;21.20;57.71;101908.19;5052728;28;20123;-64
2022/07/07 06:23:06;;;;;;;6.05;1.58;;;;;;;21.22;57.89;101922.53;5052517;28;20299;-64
2022/07/07 06:25:34;;;;;;;7.65;2.47;;;;;;;21.23;58.07;101921.56;5051967;28;20068;-64
2022/07/07 06:28:03;;;;;;;5.00;1.80;;;;;;;21.27;58.56;101928.44;5052594;28;20037;-64
2022/07/07 06:30:32;;;;;;;10.55;2.30;;;;;;;21.30;58.64;101925.41;5051198;28;20411;-63
2022/07/07 06:33:00;;;;;;;6.28;1.92;;;;;;;21.32;58.29;101931.59;5051279;28;20131;-64
2022/07/07 06:35:27;;;;;;;9.00;3.30;;;;;;;21.35;58.39;101924.94;5051224;28;20041;-64
2022/07/07 06:37:54;;;;;;;8.93;2.17;;;;;;;21.36;58.26;101924.81;5052286;28;20051;-64
2022/07/07 06:40:21;;;;;;;14.02;2.55;;;;;;;21.38;58.41;101933.69;5052242;28;20040;-67
2022/07/07 06:42:49;;;;;;;16.65;2.38;;;;;;;21.42;58.10;101946.06;5052596;28;20399;-67
2022/07/07 06:45:23;;;;;;;7.32;1.70;;;;;;;21.52;58.88;101954.19;5051788;28;20059;-68
2022/07/07 06:47:50;;;;;;;9.48;2.25;;;;;;;21.64;59.05;101943.94;5052252;28;20051;-67
2022/07/07 06:50:23;;;;;;;5.85;2.00;;;;;;;21.73;58.38;101952.06;5050792;28;20380;-68
2022/07/07 06:52:53;;;;;;;6.28;2.00;;;;;;;21.76;58.02;101951.75;5051990;28;20045;-67
2022/07/07 06:55:20;;;;;;;7.78;2.10;;;;;;;21.75;57.69;101955.50;5051715;28;20049;-67
2022/07/07 06:57:46;;;;;;;8.73;1.83;;;;;;;21.71;57.60;101966.91;5052013;28;20045;-67
2022/07/07 07:00:14;;;;;;;4.90;1.50;;;;;;;21.63;57.18;101969.53;5050613;28;20045;-67
2022/07/07 07:02:44;;;;;;;9.70;1.95;;;;;;;21.56;57.38;101967.44;5051833;28;20037;-67
2022/07/07 07:05:11;;;;;;;8.70;2.25;;;;;;;21.49;57.28;101979.97;5051609;28;20390;-67
2022/07/07 07:07:38;;;;;;;10.18;2.20;;;;;;;21.39;56.80;101992.81;5052282;28;20033;-67
2022/07/07 07:10:05;;;;;;;8.52;2.00;;;;;;;21.25;56.87;101980.50;5052141;28;20472;-66
2022/07/07 07:12:33;;;;;;;12.15;2.33;;;;;;;21.18;56.99;101979.38;5050512;28;20045;-66
2022/07/07 07:14:59;;;;;;;4.88;1.73;;;;;;;21.16;57.47;101981.38;5051575;28;20053;-66
2022/07/07 07:17:26;;;;;;;9.07;2.28;;;;;;;21.16;57.47;101984.13;5051758;28;20110;-66
2022/07/07 07:19:54;;;;;;;7.07;1.88;;;;;;;21.14;57.35;101977.94;5051692;28;20127;-67
2022/07/07 07:22:20;;;;;;;7.78;1.88;;;;;;;21.17;57.83;101984.97;5051586;28;20036;-67
2022/07/07 07:24:47;;;;;;;7.15;1.60;;;;;;;21.20;57.74;101995.59;5051080;28;20055;-66
2022/07/07 07:27:14;;;;;;;4.22;1.75;;;;;;;21.24;58.09;101989.72;5051313;28;20063;-67
2022/07/07 07:29:40;;;;;;;6.53;2.05;;;;;;;21.32;57.81;101996.31;5051346;28;20542;-66
2022/07/07 07:32:07;;;;;;;6.55;2.10;;;;;;;21.36;58.16;102001.31;5051540;28;20047;-67
2022/07/07 07:34:34;;;;;;;7.13;2.10;;;;;;;21.42;57.92;102005.31;5051666;28;20482;-66
2022/07/07 07:37:01;;;;;;;5.32;1.92;;;;;;;21.54;58.27;101999.50;5051323;28;20112;-67
2022/07/07 07:39:27;;;;;;;7.95;1.83;;;;;;;21.68;58.07;102008.22;5051284;28;20040;-66
2022/07/07 07:41:54;;;;;;;9.18;2.47;;;;;;;21.76;58.06;102020.13;5051080;28;20037;-67
2022/07/07 07:47:10;;;;;;;6.47;1.73;;;;;;;21.95;57.67;102016.38;5051604;28;20394;-67
2022/07/07 07:49:36;;;;;;;4.65;2.00;;;;;;;21.98;57.67;102015.22;5051469;28;20056;-67
2022/07/07 07:52:03;;;;;;;3.97;1.27;;;;;;;21.97;57.34;102016.22;5051674;28;20064;-67
2022/07/07 07:54:33;;;;;;;3.70;1.10;;;;;;;21.92;56.71;102022.16;5051783;28;20033;-66
2022/07/07 07:57:01;;;;;;;7.38;1.45;;;;;;;21.91;56.73;102025.06;5050767;28;20060;-67
2022/07/07 07:59:28;;;;;;;7.28;1.75;;;;;;;21.99;57.08;102023.28;5051467;28;20048;-67
2022/07/07 08:01:54;;;;;;;6.22;1.27;;;;;;;22.12;57.03;102020.19;5051486;28;20144;-67
2022/07/07 08:04:25;;;;;;;4.25;1.33;;;;;;;22.25;56.60;102019.78;5051543;28;20112;-67
2022/07/07 08:06:52;;;;;;;3.97;1.55;;;;;;;22.36;56.77;102027.78;5051056;28;20102;-67
2022/07/07 08:09:18;;;;;;;5.43;1.20;;;;;;;22.47;56.35;102019.34;5051003;28;20057;-67
2022/07/07 08:11:45;;;;;;;4.55;1.20;;;;;;;22.51;55.79;102009.78;5050557;28;20044;-67
2022/07/07 08:14:16;;;;;;;4.90;1.40;;;;;;;22.56;55.51;102020.25;5051262;28;20063;-68
2022/07/07 08:16:42;;;;;;;5.43;1.52;;;;;;;22.60;55.16;102017.06;5050914;28;20506;-67
2022/07/07 08:19:09;;;;;;;3.25;1.58;;;;;;;22.70;55.28;102025.16;5050975;28;20041;-67
2022/07/07 08:21:36;;;;;;;4.95;1.40;;;;;;;22.83;55.18;102028.38;5051238;28;20399;-69
2022/07/07 08:24:05;;;;;;;3.17;1.10;;;;;;;22.91;54.87;102038.53;5051662;28;20039;-66
2022/07/07 08:26:31;;;;;;;6.85;1.58;;;;;;;22.98;55.20;102040.47;5050765;28;20052;-67
2022/07/07 08:28:58;;;;;;;2.80;0.90;;;;;;;23.01;54.05;102044.75;5050951;28;20483;-67
2022/07/07 08:31:24;;;;;;;3.97;1.00;;;;;;;23.00;53.80;102040.31;5049682;28;20125;-67
2022/07/07 08:34:00;;;;;;;4.40;1.10;;;;;;;22.96;53.24;102037.03;5050184;28;20108;-67
2022/07/07 08:36:27;;;;;;;4.57;1.10;;;;;;;22.95;53.16;102039.94;5033108;28;20056;-67
2022/07/07 08:38:54;;;;;;;4.50;1.45;;;;;;;22.99;53.46;102035.84;5050294;28;20044;-66
2022/07/07 08:41:20;;;;;;;3.88;1.08;;;;;;;23.09;53.55;102048.44;5050763;28;20056;-66
2022/07/07 08:43:52;;;;;;;5.32;1.80;;;;;;;23.13;52.87;102043.50;5050530;28;20120;-66
2022/07/07 08:46:19;;;;;;;7.55;1.40;;;;;;;23.12;53.16;102042.66;5050183;28;20045;-66
2022/07/07 08:48:46;;;;;;;4.07;1.30;;;;;;;23.15;52.77;102046.94;5050449;28;20116;-66
2022/07/07 08:51:15;;;;;;;3.80;1.27;;;;;;;23.23;52.97;102046.13;5049287;28;20077;-67
2022/07/07 08:53:46;;;;;;;6.35;1.27;;;;;;;23.31;52.91;102040.69;5050375;28;20495;-67
2022/07/07 08:56:14;;;;;;;4.68;1.55;;;;;;;23.34;52.67;102052.19;5053444;28;20041;-66
2022/07/07 08:58:42;;;;;;;6.80;1.52;;;;;;;23.35;52.81;102061.28;5054182;28;20124;-67
2022/07/07 09:01:29;;;;;;;5.35;1.73;;;;;;;23.33;52.42;102075.16;5054099;28;20049;-67
2022/07/07 09:03:57;;;;;;;4.45;1.30;;;;;;;23.30;52.47;102078.22;5054111;28;20499;-67
2022/07/07 09:06:24;;;;;;;6.80;1.83;;;;;;;23.28;52.76;102083.00;5054037;28;20045;-67
2022/07/07 09:08:52;;;;;;;6.18;1.67;;;;;;;23.26;52.76;102087.78;5053478;28;20041;-68
2022/07/07 09:11:29;;;;;;;5.13;1.35;;;;;;;23.23;53.04;102089.97;5054500;28;20044;-67
2022/07/07 09:14:09;;;;;;;5.22;1.20;;;;;;;23.20;52.90;102088.44;5054443;28;20045;-68
2022/07/07 09:16:37;;;;;;;3.78;1.27;;;;;;;23.18;52.54;102089.59;5054496;28;20051;-67
2022/07/07 09:19:19;;;;;;;3.45;1.10;;;;;;;23.15;52.85;102096.28;5054251;28;20049;-66
2022/07/07 09:21:47;;;;;;;2.97;1.20;;;;;;;23.16;52.61;102099.88;5054056;28;20049;-67
2022/07/07 09:24:14;;;;;;;2.90;1.33;;;;;;;23.12;52.72;102102.06;5054209;28;20041;-66
2022/07/07 09:26:43;;;;;;;4.20;1.23;;;;;;;23.08;52.08;102104.28;5054213;28;20045;-66
2022/07/07 09:29:17;;;;;;;10.98;1.52;;;;;;;22.97;51.88;102107.25;5053636;28;20517;-68
2022/07/07 09:31:55;;;;;;;4.97;1.45;;;;;;;22.86;51.96;102112.13;5052314;28;20049;-67
2022/07/07 09:34:30;;;;;;;2.67;1.20;;;;;;;22.73;52.23;102113.34;5053549;28;20156;-67
2022/07/07 09:39:55;;;;;;;7.05;1.40;;;;;;;22.65;52.56;102115.16;5052902;28;20407;-67
2022/07/07 09:42:37;;;;;;;3.95;1.42;;;;;;;22.71;52.66;102111.78;5053631;28;20131;-67
2022/07/07 09:45:11;;;;;;;2.58;1.00;;;;;;;22.76;52.55;102121.25;5052600;28;20498;-66
2022/07/07 09:47:38;;;;;;;5.10;1.30;;;;;;;22.81;52.58;102120.81;5053480;28;20041;-69
2022/07/07 09:50:13;;;;;;;4.43;1.10;;;;;;;22.79;52.06;102134.63;5053858;28;20037;-67
2022/07/07 09:52:47;;;;;;;5.00;1.20;;;;;;;22.76;51.88;102132.22;5053477;28;20091;-65
2022/07/07 09:55:14;;;;;;;4.57;1.40;;;;;;;22.79;51.79;102142.84;5051750;28;20107;-67
2022/07/07 09:57:44;;;;;;;4.35;1.40;;;;;;;22.81;51.95;102139.97;5053911;28;20033;-66
2022/07/07 10:00:11;;;;;;;4.18;1.30;;;;;;;22.86;51.60;102139.50;5053547;28;20037;-66
2022/07/07 10:02:43;;;;;;;3.65;0.90;;;;;;;22.90;51.82;102146.38;5053513;28;20060;-66
2022/07/07 10:05:10;;;;;;;7.38;1.10;;;;;;;23.00;51.71;102142.53;5053477;28;20064;-67
2022/07/07 10:07:37;;;;;;;6.60;1.67;;;;;;;23.14;51.55;102152.09;5052202;28;20041;-67
2022/07/07 10:10:07;;;;;;;3.75;1.52;;;;;;;23.24;51.80;102143.78;5053605;28;20129;-67
2022/07/07 10:12:46;;;;;;;3.05;1.10;;;;;;;23.28;51.44;102151.53;5053344;28;20033;-66
2022/07/07 10:15:13;;;;;;;4.00;1.13;;;;;;;23.26;51.08;102170.00;5053454;28;20538;-67
2022/07/07 10:17:42;;;;;;;3.45;0.93;;;;;;;23.25;51.17;102179.25;5053789;28;20041;-68
2022/07/07 10:20:09;;;;;;;4.10;1.38;;;;;;;23.19;51.23;102182.63;5052312;28;20071;-67
2022/07/07 10:22:40;;;;;;;2.78;1.00;;;;;;;23.05;51.37;102180.47;5053519;28;20073;-66
2022/07/07 10:25:09;;;;;;;5.50;1.40;;;;;;;22.95;51.66;102182.41;5053549;28;20053;-67
2022/07/07 10:27:40;;;;;;;3.63;1.35;;;;;;;22.91;52.45;102181.84;5053815;28;20041;-67
2022/07/07 10:30:07;;;;;;;6.97;1.50;;;;;;;22.93;52.55;102177.06;5052444;28;20048;-67
2022/07/07 10:32:49;;;;;;;6.22;1.70;;;;;;;22.98;53.07;102184.81;5053384;28;20521;-67
2022/07/07 10:35:17;;;;;;;4.22;1.45;;;;;;;23.01;53.37;102188.09;5053052;28;20367;-67
2022/07/07 10:37:49;;;;;;;3.08;1.05;;;;;;;23.05;53.73;102184.06;5053132;28;20406;-67
2022/07/07 10:40:30;;;;;;;4.20;1.52;;;;;;;23.10;53.39;102183.59;5052680;28;20403;-66
2022/07/07 10:43:16;;;;;;;5.43;1.25;;;;;;;23.12;53.36;102195.25;5052315;28;20037;-67
2022/07/07 10:45:47;;;;;;;1.98;0.80;;;;;;;23.18;53.56;102194.63;5052697;28;20098;-67
2022/07/07 10:48:45;;;;;;;3.05;1.13;;;;;;;23.23;53.29;102196.88;5052520;28;20045;-67
2022/07/07 10:51:19;;;;;;;3.38;0.93;;;;;;;23.23;53.09;102197.75;5032934;28;20061;-67
2022/07/07 10:54:02;;;;;;;3.33;0.90;;;;;;;23.20;52.71;102197.19;5033273;28;20069;-66
2022/07/07 10:56:53;;;;;;;2.97;1.08;;;;;;;23.11;52.51;102212.72;5033030;28;20053;-67
2022/07/07 10:59:21;;;;;;;1.35;0.73;;;;;;;23.03;52.59;102210.72;5021640;28;20057;-68
2022/07/07 11:02:03;;;;;;;3.35;1.10;;;;;;;22.97;52.89;102221.44;5032595;28;20128;-68
2022/07/07 11:04:43;;;;;;;2.60;1.02;;;;;;;22.92;52.96;102230.13;5033038;28;20598;-67
2022/07/07 11:07:15;;;;;;;3.05;1.00;;;;;;;22.91;52.90;102235.78;5032784;28;20058;-67
2022/07/07 11:09:54;;;;;;;3.80;1.00;;;;;;;22.89;52.78;102235.06;5032879;28;20041;-67
2022/07/07 11:12:48;;;;;;;2.65;1.20;;;;;;;22.88;53.02;102236.09;5033113;28;20048;-67
2022/07/07 11:15:15;;;;;;;5.35;1.17;;;;;;;22.93;53.04;102239.22;5046715;28;20052;-67
2022/07/07 11:17:46;;;;;;;3.03;0.93;;;;;;;22.94;52.84;102239.06;5052692;28;20044;-66
2022/07/07 11:20:18;;;;;;;2.03;1.08;;;;;;;22.95;53.35;102237.19;5052280;28;20124;-67
2022/07/07 11:22:52;;;;;;;2.88;1.13;;;;;;;23.07;53.21;102245.06;5051583;28;20052;-67
2022/07/07 11:25:23;;;;;;;2.08;1.00;;;;;;;23.22;53.26;102239.00;5032015;28;20137;-67
2022/07/07 11:27:51;;;;;;;3.78;1.10;;;;;;;23.35;53.16;102250.44;5031678;28;20037;-67
2022/07/07 11:30:25;;;;;;;5.57;1.40;;;;;;;23.47;53.10;102243.69;5031586;28;20039;-67
2022/07/07 11:32:57;;;;;;;1.75;1.20;;;;;;;23.57;52.77;102249.09;5031689;28;20040;-67
2022/07/07 11:35:30;;;;;;;3.95;1.10;;;;;;;23.62;52.46;102246.72;5031644;28;20495;-67
2022/07/07 11:37:58;;;;;;;4.45;1.42;;;;;;;23.63;52.38;102252.06;5031944;28;20141;-67